Time;durP1;ratioP1;P1;durP2;ratioP2;P2;SDS_P1;SDS_P2;PMS_P1;PMS_P2;Temp;Humidity;BMP_temperature;BMP_pressure;BME280_temperature;BME280_humidity;BME280_pressure;Samples;Min_cycle;Max_cycle;Signal;HPM_P1;HPM_P2
2023/09/01 00:00:59;;;;;;;8.03;5.80;;;11.10;99.90;;;;;;5045218;28;20227;-77
2023/09/01 00:03:26;;;;;;;7.13;4.90;;;11.00;99.90;;;;;;5035103;28;20200;-80
2023/09/01 00:05:53;;;;;;;8.47;5.30;;;11.10;99.90;;;;;;5025184;28;20220;-80
2023/09/01 00:08:20;;;;;;;6.23;5.00;;;11.00;99.90;;;;;;5032791;28;20210;-80
2023/09/01 00:10:47;;;;;;;7.30;5.40;;;11.00;99.90;;;;;;5045352;28;20234;-79
2023/09/01 00:13:15;;;;;;;6.50;5.47;;;11.00;99.90;;;;;;5044837;28;20294;-79
2023/09/01 00:15:41;;;;;;;7.50;4.97;;;11.10;99.90;;;;;;5044460;28;20224;-79
2023/09/01 00:18:08;;;;;;;7.93;5.70;;;11.10;99.90;;;;;;5045623;28;20234;-80
2023/09/01 00:20:35;;;;;;;9.77;5.77;;;11.10;99.90;;;;;;5045982;28;20646;-78
2023/09/01 00:23:02;;;;;;;7.20;6.00;;;11.10;99.90;;;;;;5046216;28;20234;-80
2023/09/01 00:25:29;;;;;;;10.63;5.80;;;11.00;99.90;;;;;;5046054;28;20199;-78
2023/09/01 00:27:56;;;;;;;8.17;6.20;;;11.00;99.90;;;;;;5045260;28;20660;-80
2023/09/01 00:30:24;;;;;;;10.00;6.23;;;11.00;99.90;;;;;;5044927;28;20220;-80
2023/09/01 00:32:51;;;;;;;7.50;5.93;;;11.00;99.90;;;;;;5045742;28;20210;-80
2023/09/01 00:35:18;;;;;;;6.50;5.73;;;11.10;99.90;;;;;;5045697;28;20231;-79
2023/09/01 00:37:45;;;;;;;6.50;5.80;;;11.10;99.90;;;;;;5037447;28;20256;-78
2023/09/01 00:40:12;;;;;;;7.60;6.13;;;11.10;99.90;;;;;;5037227;28;20700;-80
2023/09/01 00:42:39;;;;;;;9.27;6.03;;;11.10;99.90;;;;;;5036212;28;20288;-78
2023/09/01 00:45:08;;;;;;;6.80;5.80;;;11.10;99.90;;;;;;5041429;28;20196;-80
2023/09/01 00:47:36;;;;;;;7.80;5.17;;;11.10;99.90;;;;;;5040135;28;20204;-80
2023/09/01 00:50:07;;;;;;;5.73;4.97;;;11.20;99.90;;;;;;5043710;28;20225;-79
2023/09/01 00:52:35;;;;;;;7.60;5.43;;;11.30;99.90;;;;;;5033171;28;20820;-79
2023/09/01 00:55:02;;;;;;;8.37;5.53;;;11.30;99.90;;;;;;5043813;28;20227;-79
2023/09/01 00:57:28;;;;;;;6.17;5.30;;;11.20;99.90;;;;;;5040149;28;20200;-78
2023/09/01 00:59:55;;;;;;;7.60;5.80;;;11.20;99.90;;;;;;5044101;28;20263;-80
2023/09/01 01:02:22;;;;;;;6.40;5.20;;;11.20;99.90;;;;;;5044455;28;20196;-81
2023/09/01 01:04:50;;;;;;;7.57;5.70;;;11.10;99.90;;;;;;5044688;28;20208;-78
2023/09/01 01:07:30;;;;;;;6.97;5.03;;;11.00;99.90;;;;;;5044558;28;20212;-79
2023/09/01 01:10:07;;;;;;;7.93;5.30;;;10.90;99.90;;;;;;5044513;28;20286;-80
2023/09/01 01:12:43;;;;;;;7.57;5.93;;;10.90;99.90;;;;;;5044701;28;20223;-79
2023/09/01 01:15:14;;;;;;;6.80;5.60;;;10.90;99.90;;;;;;5042342;28;20279;-80
2023/09/01 01:17:44;;;;;;;5.97;5.20;;;10.90;99.90;;;;;;5044557;28;20688;-77
2023/09/01 01:20:28;;;;;;;9.47;6.23;;;10.90;99.90;;;;;;5043931;28;20250;-78
2023/09/01 01:23:07;;;;;;;6.87;5.67;;;10.90;99.90;;;;;;5044537;28;20256;-81
2023/09/01 01:25:34;;;;;;;8.60;6.00;;;11.00;99.90;;;;;;5041836;28;20192;-80
2023/09/01 01:28:07;;;;;;;9.53;5.30;;;11.20;99.90;;;;;;5042601;28;20875;-80
2023/09/01 01:30:34;;;;;;;8.37;5.87;;;11.20;99.90;;;;;;5044707;28;20230;-78
2023/09/01 01:33:01;;;;;;;10.07;6.43;;;11.10;99.90;;;;;;5044935;28;20199;-79
2023/09/01 01:35:34;;;;;;;9.70;5.93;;;11.10;99.90;;;;;;5044166;28;20298;-78
2023/09/01 01:38:09;;;;;;;8.37;5.67;;;11.20;99.90;;;;;;5044411;28;20565;-79
2023/09/01 01:40:38;;;;;;;8.50;5.90;;;11.20;99.90;;;;;;5040052;28;20235;-80
2023/09/01 01:43:08;;;;;;;8.80;6.20;;;11.20;99.90;;;;;;5043862;28;20705;-81
2023/09/01 01:45:38;;;;;;;8.80;6.20;;;11.20;99.90;;;;;;5044009;28;20573;-79
2023/09/01 01:48:06;;;;;;;7.13;5.60;;;11.30;99.90;;;;;;5043638;28;20275;-81
2023/09/01 01:50:32;;;;;;;8.73;5.70;;;11.20;99.90;;;;;;5043384;28;20220;-79
2023/09/01 01:52:59;;;;;;;6.40;5.77;;;11.30;99.90;;;;;;5042287;28;20202;-81
2023/09/01 01:55:28;;;;;;;6.63;5.50;;;11.20;99.90;;;;;;5043482;28;20229;-78
2023/09/01 01:57:55;;;;;;;9.27;6.03;;;11.20;99.90;;;;;;5043384;28;20216;-78
2023/09/01 02:00:22;;;;;;;8.47;6.00;;;11.40;99.90;;;;;;5042462;28;20230;-80
2023/09/01 02:02:48;;;;;;;7.47;5.50;;;11.20;99.90;;;;;;5043103;28;20576;-80
2023/09/01 02:05:15;;;;;;;9.03;6.47;;;11.30;99.90;;;;;;5043632;28;20206;-78
2023/09/01 02:07:42;;;;;;;7.23;5.80;;;11.20;99.90;;;;;;5042804;28;20592;-79
2023/09/01 02:10:10;;;;;;;9.10;5.83;;;11.40;99.90;;;;;;5042766;28;20231;-79
2023/09/01 02:12:39;;;;;;;7.23;5.90;;;11.40;99.90;;;;;;5042051;28;20224;-79
2023/09/01 02:15:09;;;;;;;7.53;5.50;;;11.20;99.90;;;;;;5040150;28;20314;-77
2023/09/01 02:17:36;;;;;;;8.93;5.70;;;11.20;99.90;;;;;;5043672;28;20565;-78
2023/09/01 02:20:11;;;;;;;7.23;5.60;;;11.10;99.90;;;;;;5041622;28;20691;-81
2023/09/01 02:22:38;;;;;;;7.27;5.83;;;11.00;99.90;;;;;;5042313;28;20221;-77
2023/09/01 02:25:08;;;;;;;7.30;5.83;;;11.20;99.90;;;;;;5040284;28;20832;-79
2023/09/01 02:27:37;;;;;;;9.70;5.67;;;11.10;99.90;;;;;;5039487;28;20246;-79
2023/09/01 02:30:08;;;;;;;7.00;5.37;;;11.00;99.90;;;;;;5034219;28;20310;-78
2023/09/01 02:32:34;;;;;;;9.63;6.00;;;11.00;99.90;;;;;;5034661;28;20253;-77
2023/09/01 02:35:05;;;;;;;7.20;5.30;;;11.00;99.90;;;;;;5042367;28;20287;-79
2023/09/01 02:37:32;;;;;;;8.83;5.80;;;10.90;99.90;;;;;;5043113;28;20222;-78
2023/09/01 02:39:59;;;;;;;5.73;4.73;;;10.90;99.90;;;;;;5041378;28;20613;-79
2023/09/01 02:42:26;;;;;;;7.37;5.47;;;10.80;99.90;;;;;;5042810;28;20354;-80
2023/09/01 02:44:53;;;;;;;8.27;5.90;;;10.80;99.90;;;;;;5041973;28;20263;-80
2023/09/01 02:47:21;;;;;;;7.80;5.83;;;10.80;99.90;;;;;;5041349;28;20199;-78
2023/09/01 02:49:48;;;;;;;7.93;5.90;;;11.00;99.90;;;;;;5041613;28;20282;-77
2023/09/01 02:52:15;;;;;;;7.23;5.87;;;11.00;99.90;;;;;;5041844;28;20211;-78
2023/09/01 02:54:42;;;;;;;6.83;5.17;;;10.80;99.90;;;;;;5041118;28;20265;-79
2023/09/01 02:57:08;;;;;;;8.97;5.83;;;10.80;99.90;;;;;;5041470;28;20202;-79
2023/09/01 02:59:35;;;;;;;7.20;5.47;;;10.80;99.90;;;;;;5041291;28;20595;-78
2023/09/01 03:02:02;;;;;;;8.33;5.87;;;10.80;99.90;;;;;;5040444;28;20574;-79
2023/09/01 03:04:30;;;;;;;6.63;5.57;;;10.80;99.90;;;;;;5022348;28;20212;-79
2023/09/01 03:06:57;;;;;;;7.47;5.83;;;10.80;99.90;;;;;;5027583;28;20200;-77
2023/09/01 03:09:24;;;;;;;9.60;5.90;;;10.90;99.90;;;;;;5040843;28;20204;-76
2023/09/01 03:11:51;;;;;;;8.77;6.37;;;10.90;99.90;;;;;;5041151;28;20203;-78
2023/09/01 03:14:18;;;;;;;8.83;6.33;;;10.80;99.90;;;;;;5041674;28;20199;-77
2023/09/01 03:16:45;;;;;;;8.93;6.23;;;10.80;99.90;;;;;;5042989;28;20309;-79
2023/09/01 03:19:12;;;;;;;8.73;6.27;;;10.90;99.90;;;;;;5042319;28;20234;-78
2023/09/01 03:21:41;;;;;;;8.30;6.20;;;10.90;99.90;;;;;;5042376;28;20199;-80
2023/09/01 03:24:08;;;;;;;8.57;6.17;;;10.80;99.90;;;;;;5043097;28;20203;-81
2023/09/01 03:26:34;;;;;;;8.77;6.40;;;10.80;99.90;;;;;;5042146;28;20207;-80
2023/09/01 03:29:02;;;;;;;8.40;5.87;;;10.90;99.90;;;;;;5042758;28;20270;-80
2023/09/01 03:31:29;;;;;;;7.20;5.90;;;10.70;99.90;;;;;;5041938;28;20227;-78
2023/09/01 03:33:56;;;;;;;7.03;5.60;;;10.70;99.90;;;;;;5044818;28;20210;-78
2023/09/01 03:36:22;;;;;;;6.27;5.20;;;10.70;99.90;;;;;;5044907;28;20405;-76
2023/09/01 03:38:51;;;;;;;10.53;6.13;;;10.50;99.90;;;;;;5045584;28;20575;-79
2023/09/01 03:41:17;;;;;;;7.10;6.00;;;10.40;99.90;;;;;;5044495;28;20224;-79
2023/09/01 03:43:44;;;;;;;8.03;6.27;;;10.60;99.90;;;;;;5045005;28;20207;-80
2023/09/01 03:46:11;;;;;;;6.83;5.40;;;10.60;99.90;;;;;;5045604;28;20207;-78
2023/09/01 03:48:38;;;;;;;7.20;6.27;;;10.60;99.90;;;;;;5045503;28;20208;-78
2023/09/01 03:51:09;;;;;;;8.30;6.77;;;10.60;99.90;;;;;;5044674;28;20842;-80
2023/09/01 03:53:37;;;;;;;10.70;6.20;;;10.60;99.90;;;;;;5044654;28;20322;-78
2023/09/01 03:56:09;;;;;;;7.10;6.40;;;10.60;99.90;;;;;;5045262;28;20245;-80
2023/09/01 03:58:36;;;;;;;9.83;6.07;;;10.20;99.90;;;;;;5044716;28;20215;-79
2023/09/01 04:01:05;;;;;;;7.07;6.17;;;10.00;99.90;;;;;;5044507;28;20794;-78
2023/09/01 04:03:35;;;;;;;7.63;6.33;;;10.10;99.90;;;;;;5044402;28;20199;-79
2023/09/01 04:06:03;;;;;;;7.20;6.50;;;10.00;99.90;;;;;;5045378;28;20234;-77
2023/09/01 04:08:30;;;;;;;10.57;6.67;;;9.90;99.90;;;;;;5045318;28;20243;-78
2023/09/01 04:10:57;;;;;;;8.13;6.43;;;9.90;99.90;;;;;;5044888;28;20703;-80
2023/09/01 04:13:25;;;;;;;7.80;6.50;;;10.00;99.90;;;;;;5045380;28;20208;-78
2023/09/01 04:15:52;;;;;;;7.30;6.30;;;9.90;99.90;;;;;;5045844;28;20234;-79
2023/09/01 04:18:19;;;;;;;6.97;6.27;;;9.90;99.90;;;;;;5045165;28;20210;-81
2023/09/01 04:20:49;;;;;;;10.43;7.47;;;9.90;99.90;;;;;;5045095;28;20231;-79
2023/09/01 04:23:16;;;;;;;10.53;8.23;;;9.90;99.90;;;;;;5044427;28;20277;-77
2023/09/01 04:25:44;;;;;;;8.97;7.90;;;10.10;99.90;;;;;;5044162;28;20210;-79
2023/09/01 04:28:12;;;;;;;11.53;8.33;;;10.00;99.90;;;;;;5042908;28;20230;-81
2023/09/01 04:30:40;;;;;;;8.70;6.93;;;10.10;99.90;;;;;;5042041;28;20288;-77
2023/09/01 04:33:07;;;;;;;11.47;7.50;;;9.80;99.90;;;;;;5045385;28;20666;-79
2023/09/01 04:35:34;;;;;;;10.90;7.17;;;9.90;99.90;;;;;;5042844;28;20238;-81
2023/09/01 04:38:02;;;;;;;8.97;7.27;;;9.90;99.90;;;;;;5041492;28;20674;-79
2023/09/01 04:40:30;;;;;;;10.67;7.87;;;10.00;99.90;;;;;;5040455;28;20231;-78
2023/09/01 04:42:57;;;;;;;10.07;7.37;;;10.10;99.90;;;;;;5039939;28;20203;-77
2023/09/01 04:45:25;;;;;;;14.67;8.97;;;10.10;99.90;;;;;;5042889;28;20279;-80
2023/09/01 04:47:54;;;;;;;14.90;8.00;;;10.20;99.90;;;;;;5040915;28;20633;-79
2023/09/01 04:50:20;;;;;;;13.40;7.87;;;10.20;99.90;;;;;;5046679;28;20302;-80
2023/09/01 04:52:48;;;;;;;12.87;7.93;;;10.40;99.90;;;;;;5042009;28;20199;-77
2023/09/01 04:55:17;;;;;;;12.67;8.13;;;10.30;99.90;;;;;;5040177;28;20211;-77
2023/09/01 04:57:44;;;;;;;12.20;9.37;;;10.40;99.90;;;;;;5047008;28;20203;-79
2023/09/01 05:00:16;;;;;;;16.77;12.30;;;10.40;99.90;;;;;;5046930;28;20494;-82
2023/09/01 05:02:46;;;;;;;8.50;7.60;;;10.50;99.90;;;;;;5036803;28;20207;-80
2023/09/01 05:05:16;;;;;;;11.13;7.30;;;10.40;99.90;;;;;;5038600;28;20200;-81
2023/09/01 05:07:43;;;;;;;14.20;10.43;;;10.30;99.90;;;;;;5049791;28;20203;-79
2023/09/01 05:10:11;;;;;;;9.33;7.60;;;10.50;99.90;;;;;;5044477;28;20291;-79
2023/09/01 05:12:38;;;;;;;8.17;6.33;;;10.60;99.90;;;;;;5036917;28;20206;-79
2023/09/01 05:15:06;;;;;;;10.23;7.37;;;10.30;99.90;;;;;;5045713;28;20230;-77
2023/09/01 05:17:32;;;;;;;8.50;6.80;;;10.30;99.90;;;;;;5034711;28;20215;-78
2023/09/01 05:20:01;;;;;;;11.07;6.73;;;10.00;99.90;;;;;;5043805;28;20306;-79
2023/09/01 05:22:28;;;;;;;7.67;6.27;;;10.20;99.90;;;;;;5038503;28;20287;-77
2023/09/01 05:24:55;;;;;;;8.73;6.97;;;10.10;99.90;;;;;;5042908;28;20633;-78
2023/09/01 05:27:22;;;;;;;9.03;6.90;;;10.10;99.90;;;;;;5038864;28;20215;-81
2023/09/01 05:29:50;;;;;;;12.07;7.20;;;10.30;99.90;;;;;;5040003;28;20700;-79
2023/09/01 05:32:17;;;;;;;8.80;6.90;;;10.40;99.90;;;;;;5044790;28;20628;-78
2023/09/01 05:34:44;;;;;;;13.00;7.37;;;10.50;99.90;;;;;;5042387;28;20222;-79
2023/09/01 05:37:12;;;;;;;9.23;7.50;;;10.60;99.90;;;;;;5051742;28;20223;-78
2023/09/01 05:39:41;;;;;;;11.43;8.33;;;10.70;99.90;;;;;;5042361;28;20702;-79
2023/09/01 05:42:09;;;;;;;11.70;8.67;;;10.90;99.90;;;;;;5035635;28;20226;-80
2023/09/01 05:44:37;;;;;;;10.57;8.60;;;11.00;99.90;;;;;;5038312;28;20318;-78
2023/09/01 05:47:04;;;;;;;12.60;7.93;;;11.50;99.90;;;;;;5046320;28;20195;-79
2023/09/01 05:49:32;;;;;;;9.10;7.20;;;11.40;99.90;;;;;;5044109;28;20208;-80
2023/09/01 05:52:00;;;;;;;9.97;7.33;;;11.40;99.90;;;;;;5053469;28;20278;-77
2023/09/01 05:54:27;;;;;;;9.67;7.27;;;11.50;99.90;;;;;;5043473;28;20195;-80
2023/09/01 05:56:56;;;;;;;12.93;8.47;;;11.60;99.90;;;;;;5041121;28;20223;-77
2023/09/01 05:59:23;;;;;;;10.13;7.60;;;11.60;99.90;;;;;;5039627;28;20248;-77
2023/09/01 06:01:50;;;;;;;12.83;8.20;;;11.70;99.90;;;;;;5042078;28;20283;-78
2023/09/01 06:04:17;;;;;;;8.97;7.43;;;11.80;99.90;;;;;;5043020;28;20243;-82
2023/09/01 06:06:44;;;;;;;12.83;7.23;;;11.90;99.90;;;;;;5039906;28;20640;-79
2023/09/01 06:09:11;;;;;;;11.63;7.87;;;11.90;99.90;;;;;;5041089;28;20232;-80
2023/09/01 06:11:38;;;;;;;11.67;7.67;;;12.10;99.90;;;;;;5041355;28;20227;-79
2023/09/01 06:14:07;;;;;;;11.43;7.93;;;12.30;99.90;;;;;;5040414;28;20297;-81
2023/09/01 06:16:34;;;;;;;12.70;7.80;;;12.50;99.90;;;;;;5042097;28;20703;-81
2023/09/01 06:19:02;;;;;;;11.47;7.60;;;12.70;99.90;;;;;;5042102;28;20263;-78
2023/09/01 06:21:29;;;;;;;12.63;8.37;;;12.70;99.90;;;;;;5042354;28;20223;-78
2023/09/01 06:23:55;;;;;;;10.50;7.67;;;12.70;99.90;;;;;;5043535;28;20566;-81
2023/09/01 06:26:22;;;;;;;10.93;8.03;;;12.70;99.90;;;;;;5041319;28;20203;-77
2023/09/01 06:28:49;;;;;;;10.87;7.57;;;12.90;99.90;;;;;;5039553;28;20204;-80
2023/09/01 06:31:18;;;;;;;11.93;7.83;;;12.90;99.90;;;;;;5043207;28;20747;-80
2023/09/01 06:33:46;;;;;;;10.37;7.40;;;12.90;99.90;;;;;;5048149;28;20762;-81
2023/09/01 06:36:14;;;;;;;11.17;7.27;;;13.30;99.90;;;;;;5049112;28;20224;-79
2023/09/01 06:38:43;;;;;;;9.77;6.87;;;13.30;99.90;;;;;;5034856;28;20192;-81
2023/09/01 06:41:10;;;;;;;9.57;6.40;;;13.50;99.90;;;;;;5037089;28;20227;-80
2023/09/01 06:43:37;;;;;;;10.80;6.40;;;13.40;99.90;;;;;;5039737;28;20204;-82
2023/09/01 06:46:04;;;;;;;10.23;6.10;;;13.50;99.90;;;;;;5043823;28;20218;-77
2023/09/01 06:48:32;;;;;;;7.70;5.57;;;13.70;99.90;;;;;;5038981;28;20202;-83
2023/09/01 06:51:00;;;;;;;9.67;5.13;;;13.60;99.90;;;;;;5038941;28;20275;-80
2023/09/01 06:53:27;;;;;;;8.35;5.20;;;13.80;99.90;;;;;;5047542;28;20207;-83
2023/09/01 06:55:54;;;;;;;7.33;5.30;;;13.80;99.90;;;;;;5040308;28;20204;-78
2023/09/01 06:58:21;;;;;;;9.90;5.72;;;13.90;99.90;;;;;;5041543;28;20199;-82
2023/09/01 07:00:51;;;;;;;8.33;5.57;;;14.10;99.90;;;;;;5042983;28;20219;-80
2023/09/01 07:03:18;;;;;;;8.68;5.22;;;14.20;99.90;;;;;;5041346;28;20254;-79
2023/09/01 07:05:55;;;;;;;8.10;5.33;;;14.20;99.90;;;;;;5035800;28;20231;-81
2023/09/01 07:08:22;;;;;;;9.77;5.90;;;14.30;99.90;;;;;;5040813;28;20211;-80
2023/09/01 07:10:49;;;;;;;7.68;4.90;;;14.30;99.90;;;;;;5041468;28;20671;-79
2023/09/01 07:13:16;;;;;;;13.52;7.47;;;14.30;99.90;;;;;;5037342;28;20200;-78
2023/09/01 07:15:50;;;;;;;9.82;4.97;;;14.40;99.90;;;;;;5034910;28;20207;-81
2023/09/01 07:18:17;;;;;;;8.48;4.68;;;14.40;99.90;;;;;;5031446;28;20554;-80
2023/09/01 07:20:46;;;;;;;6.90;4.18;;;14.50;99.90;;;;;;5037641;28;20335;-80
2023/09/01 07:23:15;;;;;;;10.15;4.32;;;14.60;99.90;;;;;;5035368;28;20212;-79
2023/09/01 07:25:44;;;;;;;7.35;4.38;;;14.70;99.90;;;;;;5032804;28;20295;-78
2023/09/01 07:28:11;;;;;;;7.97;4.70;;;14.70;99.90;;;;;;5041148;28;20203;-79
2023/09/01 07:30:38;;;;;;;8.35;4.65;;;14.70;99.90;;;;;;5037830;28;20224;-79
2023/09/01 07:33:07;;;;;;;12.70;4.70;;;14.80;99.90;;;;;;5034509;28;20195;-80
2023/09/01 07:35:35;;;;;;;7.63;4.78;;;14.80;99.90;;;;;;5034842;28;20290;-79
2023/09/01 07:38:03;;;;;;;7.32;4.43;;;14.90;99.90;;;;;;5033126;28;20257;-78
2023/09/01 07:40:33;;;;;;;7.37;4.57;;;14.90;99.90;;;;;;5039402;28;20310;-79
2023/09/01 07:43:00;;;;;;;6.40;4.07;;;15.00;99.90;;;;;;5030817;28;20207;-80
2023/09/01 07:45:27;;;;;;;5.43;3.92;;;15.00;99.90;;;;;;5030762;28;20640;-79
2023/09/01 07:47:54;;;;;;;7.93;4.05;;;15.20;99.90;;;;;;5032709;28;20199;-80
2023/09/01 07:50:23;;;;;;;5.93;4.05;;;15.30;99.90;;;;;;5031324;28;20230;-79
2023/09/01 07:52:51;;;;;;;7.50;4.22;;;15.30;99.90;;;;;;5033881;28;20196;-79
2023/09/01 07:55:18;;;;;;;5.15;4.10;;;15.40;99.90;;;;;;5031592;28;20200;-80
2023/09/01 07:57:46;;;;;;;9.10;4.35;;;15.50;99.90;;;;;;5029090;28;20292;-79
2023/09/01 08:00:14;;;;;;;8.00;3.40;;;15.50;99.90;;;;;;5032475;28;20695;-80
2023/09/01 08:02:41;;;;;;;6.82;4.07;;;15.60;99.90;;;;;;5032582;28;20239;-80
2023/09/01 08:05:09;;;;;;;5.95;3.55;;;15.70;99.90;;;;;;5033941;28;20719;-79
2023/09/01 08:07:36;;;;;;;6.93;4.05;;;15.70;99.90;;;;;;5039159;28;20203;-79
2023/09/01 08:10:03;;;;;;;7.75;4.30;;;15.80;99.90;;;;;;5042150;28;20705;-79
2023/09/01 08:12:30;;;;;;;5.50;3.90;;;15.90;99.90;;;;;;5031769;28;20238;-79
2023/09/01 08:14:59;;;;;;;7.35;3.95;;;16.00;99.90;;;;;;5036411;28;20203;-79
2023/09/01 08:17:26;;;;;;;5.43;3.42;;;16.00;99.90;;;;;;5037447;28;20227;-79
2023/09/01 08:19:53;;;;;;;7.63;4.00;;;16.10;99.90;;;;;;5037459;28;20579;-79
2023/09/01 08:22:23;;;;;;;4.50;3.38;;;16.20;99.90;;;;;;5045370;28;20206;-79
2023/09/01 08:24:49;;;;;;;6.40;3.65;;;16.30;99.90;;;;;;5038219;28;20200;-79
2023/09/01 08:27:16;;;;;;;6.93;4.05;;;16.30;99.90;;;;;;5043808;28;20287;-78
2023/09/01 08:29:44;;;;;;;6.85;3.53;;;16.40;99.90;;;;;;5042814;28;20225;-78
2023/09/01 08:32:12;;;;;;;7.55;3.53;;;16.50;99.90;;;;;;5032920;28;20352;-79
2023/09/01 08:34:40;;;;;;;10.00;3.95;;;16.60;99.90;;;;;;5043170;28;20217;-79
2023/09/01 08:37:07;;;;;;;6.70;3.88;;;16.60;99.90;;;;;;5044011;28;20218;-79
2023/09/01 08:39:35;;;;;;;5.35;3.53;;;16.60;99.90;;;;;;5044511;28;20233;-79
2023/09/01 08:42:03;;;;;;;6.88;3.90;;;16.60;99.90;;;;;;5047695;28;20211;-78
2023/09/01 08:44:35;;;;;;;12.07;4.50;;;16.70;99.90;;;;;;5034581;28;20210;-79
2023/09/01 08:47:03;;;;;;;7.65;3.42;;;16.70;99.90;;;;;;5045275;28;20580;-78
2023/09/01 08:49:31;;;;;;;9.75;4.40;;;16.80;99.90;;;;;;5028711;28;20199;-79
2023/09/01 08:51:58;;;;;;;5.93;3.75;;;16.90;99.90;;;;;;5037597;28;20670;-79
2023/09/01 08:54:26;;;;;;;6.57;4.00;;;17.00;99.90;;;;;;5030033;28;20206;-79
2023/09/01 08:56:53;;;;;;;7.75;4.38;;;17.20;99.90;;;;;;5028854;28;20212;-78
2023/09/01 08:59:20;;;;;;;5.65;3.63;;;17.00;99.90;;;;;;5028910;28;20199;-79
2023/09/01 09:01:48;;;;;;;7.47;3.72;;;17.30;99.90;;;;;;5016613;28;20204;-80
2023/09/01 09:04:15;;;;;;;8.68;3.97;;;17.40;99.90;;;;;;5017448;28;20579;-79
2023/09/01 09:06:43;;;;;;;4.95;3.22;;;17.40;99.90;;;;;;5018261;28;20683;-80
2023/09/01 09:09:14;;;;;;;5.60;3.45;;;17.50;99.90;;;;;;5033329;28;20297;-80
2023/09/01 09:11:54;;;;;;;7.35;3.60;;;17.80;99.90;;;;;;5038157;28;20257;-80
2023/09/01 09:14:21;;;;;;;8.05;4.18;;;18.00;99.90;;;;;;5015849;28;20204;-79
2023/09/01 09:16:52;;;;;;;6.72;3.30;;;18.30;99.90;;;;;;5033017;28;20557;-80
2023/09/01 09:19:19;;;;;;;5.38;3.67;;;18.70;99.90;;;;;;5031152;28;20203;-79
2023/09/01 09:21:48;;;;;;;7.97;3.35;;;19.30;99.90;;;;;;5037950;28;20207;-79
2023/09/01 09:24:15;;;;;;;8.02;3.58;;;19.60;99.90;;;;;;5038983;28;20281;-80
2023/09/01 09:26:41;;;;;;;8.57;3.65;;;19.70;99.90;;;;;;5038738;28;20204;-80
2023/09/01 09:29:11;;;;;;;9.82;3.92;;;20.10;99.90;;;;;;5037214;28;20686;-80
2023/09/01 09:31:40;;;;;;;7.38;3.80;;;19.80;99.90;;;;;;5037114;28;20656;-79
2023/09/01 09:34:15;;;;;;;8.07;3.40;;;20.10;99.90;;;;;;5037987;28;20204;-80
2023/09/01 09:36:42;;;;;;;6.18;3.25;;;20.30;99.90;;;;;;5037862;28;20203;-81
2023/09/01 09:39:23;;;;;;;10.43;3.60;;;20.60;99.90;;;;;;5037644;28;20215;-79
2023/09/01 09:41:50;;;;;;;6.30;3.40;;;20.50;99.90;;;;;;5037829;28;20200;-79
2023/09/01 09:44:24;;;;;;;6.50;3.08;;;20.10;99.90;;;;;;5036507;28;20204;-79
2023/09/01 09:46:50;;;;;;;7.05;3.03;;;20.50;99.90;;;;;;5036572;28;20235;-80
2023/09/01 09:49:18;;;;;;;3.90;2.60;;;20.50;99.90;;;;;;5036804;28;20299;-80
2023/09/01 09:51:48;;;;;;;5.10;3.00;;;20.80;99.90;;;;;;5036690;28;20210;-80
2023/09/01 09:54:18;;;;;;;3.88;2.65;;;21.30;99.90;;;;;;5037341;28;20207;-80
2023/09/01 09:56:49;;;;;;;6.15;3.00;;;21.00;99.90;;;;;;5036581;28;20664;-80
2023/09/01 09:59:21;;;;;;;7.07;3.05;;;21.10;99.90;;;;;;5036332;28;20580;-79
2023/09/01 10:01:50;;;;;;;4.68;2.58;;;21.00;99.90;;;;;;5037270;28;20203;-79
2023/09/01 10:04:18;;;;;;;5.93;2.88;;;20.70;99.90;;;;;;5036322;28;20294;-79
2023/09/01 10:06:45;;;;;;;6.47;3.00;;;20.40;99.90;;;;;;5036890;28;20230;-79
2023/09/01 10:09:16;;;;;;;6.15;2.55;;;20.50;99.90;;;;;;5037052;28;20204;-80
2023/09/01 10:11:44;;;;;;;4.57;2.50;;;20.50;99.90;;;;;;5036881;28;20274;-79
2023/09/01 10:14:13;;;;;;;4.78;3.03;;;20.30;99.90;;;;;;5036882;28;20218;-79
2023/09/01 10:16:40;;;;;;;4.65;2.67;;;20.30;99.90;;;;;;5037125;28;20195;-80
2023/09/01 10:19:10;;;;;;;3.63;2.25;;;20.20;99.90;;;;;;5036371;28;20273;-79
2023/09/01 10:21:40;;;;;;;5.20;2.60;;;20.40;99.90;;;;;;5037247;28;20829;-80
2023/09/01 10:24:13;;;;;;;4.28;2.15;;;20.90;99.90;;;;;;5036345;28;20200;-79
2023/09/01 10:26:41;;;;;;;3.25;2.00;;;21.00;99.90;;;;;;5036260;28;20184;-79
2023/09/01 10:29:08;;;;;;;6.43;2.30;;;21.30;99.90;;;;;;5035640;28;20214;-78
2023/09/01 10:31:36;;;;;;;5.50;2.17;;;21.00;99.90;;;;;;5036286;28;20220;-80
2023/09/01 10:34:13;;;;;;;4.28;2.58;;;21.40;99.90;;;;;;5037158;28;20782;-79
2023/09/01 10:36:40;;;;;;;3.85;2.20;;;21.00;99.90;;;;;;5036967;28;20624;-79
2023/09/01 10:39:23;;;;;;;2.92;1.70;;;20.90;99.90;;;;;;5036251;28;20596;-79
2023/09/01 10:41:58;;;;;;;2.00;1.80;;;20.90;99.90;;;;;;5036320;28;20631;-80
2023/09/01 10:44:27;;;;;;;3.40;1.88;;;21.10;99.90;;;;;;5036131;28;20194;-80
2023/09/01 10:46:55;;;;;;;2.45;1.58;;;21.10;99.90;;;;;;5036021;28;20210;-80
2023/09/01 10:49:56;;;;;;;2.40;1.90;;;21.10;99.90;;;;;;5036556;28;20210;-79
2023/09/01 10:52:23;;;;;;;4.22;2.00;;;20.60;99.90;;;;;;5036059;28;20207;-80
2023/09/01 10:55:04;;;;;;;3.00;1.88;;;20.80;99.90;;;;;;5037386;28;20679;-78
2023/09/01 10:57:39;;;;;;;3.67;2.30;;;21.00;99.90;;;;;;5037317;28;20628;-79
2023/09/01 11:00:25;;;;;;;4.47;2.08;;;20.90;99.90;;;;;;5035225;28;20291;-80
2023/09/01 11:02:53;;;;;;;1.90;1.80;;;20.80;99.90;;;;;;5036630;28;20211;-78
2023/09/01 11:05:39;;;;;;;4.38;2.28;;;20.60;99.90;;;;;;5036022;28;20235;-80
2023/09/01 11:08:17;;;;;;;2.55;1.90;;;20.90;99.90;;;;;;5035395;28;20199;-78
2023/09/01 11:10:44;;;;;;;4.15;2.10;;;20.70;99.90;;;;;;5035415;28;20230;-78
2023/09/01 11:13:15;;;;;;;2.15;1.95;;;20.60;99.90;;;;;;5033348;28;20204;-80
2023/09/01 11:15:46;;;;;;;2.63;1.70;;;20.60;99.90;;;;;;5035462;28;20574;-80
2023/09/01 11:18:19;;;;;;;2.92;1.70;;;20.40;99.90;;;;;;5027559;28;20224;-80
2023/09/01 11:20:47;;;;;;;2.72;1.40;;;20.60;99.90;;;;;;5030752;28;20227;-78
2023/09/01 11:23:18;;;;;;;1.95;1.48;;;20.60;99.90;;;;;;5016912;28;20204;-79
2023/09/01 11:25:45;;;;;;;4.13;1.70;;;20.70;99.90;;;;;;5031000;28;20290;-79
2023/09/01 11:28:13;;;;;;;2.60;1.70;;;20.70;99.90;;;;;;5021589;28;20199;-78
2023/09/01 11:30:51;;;;;;;2.90;1.75;;;20.40;99.90;;;;;;5027274;28;20220;-77
2023/09/01 11:33:21;;;;;;;1.98;1.45;;;20.40;99.90;;;;;;5028010;28;20203;-78
2023/09/01 11:35:49;;;;;;;2.63;1.60;;;20.50;99.90;;;;;;5031930;28;20208;-77
2023/09/01 11:38:19;;;;;;;3.35;1.70;;;20.20;99.90;;;;;;5033249;28;20264;-78
2023/09/01 11:40:47;;;;;;;2.30;1.60;;;20.10;99.90;;;;;;5032962;28;20263;-79
2023/09/01 11:43:14;;;;;;;2.30;2.00;;;20.20;99.90;;;;;;5033647;28;20249;-78
2023/09/01 11:45:48;;;;;;;1.90;1.55;;;20.30;99.90;;;;;;5034096;28;20214;-79
2023/09/01 11:48:21;;;;;;;1.80;1.55;;;20.20;99.90;;;;;;5026701;28;20227;-77
2023/09/01 11:50:49;;;;;;;4.13;1.75;;;20.20;99.90;;;;;;5028111;28;20220;-79
2023/09/01 11:53:23;;;;;;;4.22;2.00;;;20.10;99.90;;;;;;5020503;28;20196;-78
2023/09/01 11:55:51;;;;;;;4.03;2.03;;;20.10;99.90;;;;;;5030242;28;20202;-78
2023/09/01 11:58:18;;;;;;;2.00;1.80;;;19.90;99.90;;;;;;5037998;28;20261;-78
2023/09/01 12:00:45;;;;;;;2.03;1.85;;;19.90;99.90;;;;;;5039072;28;20243;-78
2023/09/01 12:03:12;;;;;;;3.40;2.08;;;20.00;99.90;;;;;;5028728;28;20290;-78
2023/09/01 12:05:40;;;;;;;4.38;2.30;;;19.90;99.90;;;;;;5029931;28;20200;-79
2023/09/01 12:08:10;;;;;;;2.35;1.90;;;19.90;99.90;;;;;;5038829;28;20202;-79
2023/09/01 12:10:37;;;;;;;2.88;1.92;;;19.90;99.90;;;;;;5037540;28;20220;-78
2023/09/01 12:13:07;;;;;;;2.63;1.40;;;20.10;99.90;;;;;;5039131;28;20226;-78
2023/09/01 12:15:34;;;;;;;5.55;2.10;;;20.20;99.90;;;;;;5039596;28;20206;-78
2023/09/01 12:18:29;;;;;;;1.63;1.50;;;20.00;99.90;;;;;;5035456;28;20242;-79
2023/09/01 12:20:55;;;;;;;4.47;1.73;;;20.10;99.90;;;;;;5034491;28;20600;-78
2023/09/01 12:23:28;;;;;;;1.73;1.55;;;20.00;99.90;;;;;;5037556;28;20203;-78
2023/09/01 12:25:55;;;;;;;2.38;2.10;;;20.00;99.90;;;;;;5037946;28;20211;-79
2023/09/01 12:28:21;;;;;;;1.90;1.75;;;19.70;99.90;;;;;;5037460;28;20203;-78
2023/09/01 12:30:48;;;;;;;1.70;1.60;;;19.70;99.90;;;;;;5037504;28;20231;-80
2023/09/01 12:33:15;;;;;;;2.65;1.80;;;19.90;99.90;;;;;;5024753;28;20196;-79
2023/09/01 12:35:42;;;;;;;3.75;2.00;;;19.90;99.90;;;;;;5017412;28;20204;-79
2023/09/01 12:38:09;;;;;;;2.00;1.60;;;19.80;99.90;;;;;;5035807;28;20583;-79
2023/09/01 12:40:37;;;;;;;2.65;1.85;;;19.80;99.90;;;;;;5036815;28;20737;-79
2023/09/01 12:43:04;;;;;;;2.13;1.92;;;19.90;99.90;;;;;;5036840;28;20195;-79
2023/09/01 12:45:31;;;;;;;2.95;1.92;;;20.00;99.90;;;;;;5036859;28;20196;-79
2023/09/01 12:47:59;;;;;;;4.25;1.73;;;20.00;99.90;;;;;;5019022;28;20204;-79
2023/09/01 12:50:26;;;;;;;2.65;1.80;;;19.90;99.90;;;;;;5016848;28;20270;-79
2023/09/01 12:52:53;;;;;;;3.67;2.00;;;20.00;99.90;;;;;;5026916;28;20204;-79